createdAt,value
2022-10-22T00:00:47.996Z,78.90
2022-10-22T00:03:15.435Z,79.46
2022-10-22T00:05:43.768Z,79.10
2022-10-22T00:08:13.756Z,80.08
2022-10-22T00:10:41.484Z,79.93
2022-10-22T00:13:08.990Z,79.29
2022-10-22T00:15:36.472Z,79.56
2022-10-22T00:18:04.093Z,78.64
2022-10-22T00:20:31.588Z,78.89
2022-10-22T00:22:59.042Z,78.87
2022-10-22T00:25:27.894Z,79.21
2022-10-22T00:27:55.373Z,80.47
2022-10-22T00:30:23.011Z,80.73
2022-10-22T00:32:50.450Z,81.19
2022-10-22T00:35:17.988Z,81.24
2022-10-22T00:37:45.475Z,81.20
2022-10-22T00:40:13.571Z,81.24
2022-10-22T00:42:42.869Z,80.63
2022-10-22T00:45:20.916Z,79.49
2022-10-22T00:47:54.316Z,79.19
2022-10-22T00:50:25.501Z,79.80
2022-10-22T00:52:53.460Z,79.37
2022-10-22T00:55:22.768Z,79.65
2022-10-22T00:57:52.315Z,79.49
2022-10-22T01:00:20.184Z,79.13
2022-10-22T01:02:49.686Z,78.32
2022-10-22T01:05:17.474Z,78.66
2022-10-22T01:07:48.133Z,78.55
2022-10-22T01:10:26.595Z,78.71
2022-10-22T01:13:07.264Z,78.24
2022-10-22T01:15:39.943Z,78.88
2022-10-22T01:18:11.433Z,78.76
2022-10-22T01:20:59.599Z,78.80
2022-10-22T01:23:56.493Z,79.93
2022-10-22T01:26:32.350Z,79.79
2022-10-22T01:29:07.527Z,79.23
2022-10-22T01:31:39.300Z,78.72
2022-10-22T01:34:09.139Z,78.97
2022-10-22T01:36:38.704Z,79.74
2022-10-22T01:39:08.225Z,80.71
2022-10-22T01:41:36.667Z,80.83
2022-10-22T01:44:05.788Z,80.60
2022-10-22T01:46:33.610Z,80.94
2022-10-22T01:49:17.337Z,80.47
2022-10-22T01:51:53.425Z,80.79
2022-10-22T01:54:32.297Z,80.37
2022-10-22T01:57:07.930Z,79.68
2022-10-22T01:59:46.590Z,79.15
2022-10-22T02:02:25.353Z,80.14
2022-10-22T02:04:59.385Z,79.85
2022-10-22T02:07:32.689Z,79.60
2022-10-22T02:10:01.883Z,79.21
2022-10-22T02:12:31.723Z,79.25
2022-10-22T02:15:03.769Z,78.24
2022-10-22T02:17:35.719Z,77.42
2022-10-22T02:20:09.441Z,77.23
2022-10-22T02:22:38.067Z,76.96
2022-10-22T02:25:07.196Z,77.02
2022-10-22T02:27:40.562Z,76.46
2022-10-22T02:30:12.444Z,77.97
2022-10-22T02:32:45.785Z,78.38
2022-10-22T02:35:18.290Z,78.53
2022-10-22T02:37:46.524Z,77.65
2022-10-22T02:40:14.366Z,77.71
2022-10-22T02:42:43.465Z,76.67
2022-10-22T02:45:12.676Z,77.20
2022-10-22T02:47:40.149Z,77.08
2022-10-22T02:50:10.306Z,77.39
2022-10-22T02:52:38.742Z,77.15
2022-10-22T02:55:07.523Z,76.31
2022-10-22T02:57:35.079Z,76.92
2022-10-22T03:00:02.775Z,77.08
2022-10-22T03:02:31.609Z,77.27
2022-10-22T03:04:59.159Z,76.83
2022-10-22T03:07:26.661Z,75.91
2022-10-22T03:09:54.206Z,76.06
2022-10-22T03:12:21.692Z,76.66
2022-10-22T03:14:49.171Z,77.39
2022-10-22T03:17:16.678Z,77.52
2022-10-22T03:19:45.502Z,78.23
2022-10-22T03:22:18.553Z,78.52
2022-10-22T03:24:49.904Z,79.34
2022-10-22T03:27:21.015Z,80.32
2022-10-22T03:29:51.881Z,80.25
2022-10-22T03:32:19.409Z,79.94
2022-10-22T03:34:48.599Z,79.84
2022-10-22T03:37:16.155Z,80.19
2022-10-22T03:39:43.789Z,81.14
2022-10-22T03:42:13.228Z,81.83
2022-10-22T03:44:41.784Z,82.23
2022-10-22T03:47:09.269Z,81.67
2022-10-22T03:49:36.758Z,81.42
2022-10-22T03:52:10.433Z,81.36
2022-10-22T03:57:07.303Z,82.59
2022-10-22T03:59:36.078Z,82.85
2022-10-22T04:02:03.686Z,82.73
2022-10-22T04:04:31.202Z,82.91
2022-10-22T04:06:58.739Z,83.61
2022-10-22T04:09:27.668Z,84.70
2022-10-22T04:11:55.206Z,84.33
2022-10-22T04:14:22.883Z,84.33
2022-10-22T04:16:50.361Z,84.16
2022-10-22T04:19:18.264Z,83.93
2022-10-22T04:21:45.777Z,84.77
2022-10-22T04:24:13.249Z,83.97
2022-10-22T04:26:42.179Z,83.46
2022-10-22T04:29:13.375Z,83.77
2022-10-22T04:31:43.536Z,82.98
2022-10-22T04:34:11.065Z,83.03
2022-10-22T04:36:38.652Z,82.53
2022-10-22T04:39:06.564Z,82.54
2022-10-22T04:41:36.364Z,82.20
2022-10-22T04:44:06.216Z,82.13
2022-10-22T04:46:35.881Z,81.75
2022-10-22T04:49:04.622Z,81.38
2022-10-22T04:51:33.215Z,81.82
2022-10-22T04:54:00.805Z,81.40
2022-10-22T04:56:30.037Z,81.82
2022-10-22T04:59:00.085Z,82.23
2022-10-22T05:01:31.182Z,82.78
2022-10-22T05:04:00.771Z,83.09
2022-10-22T05:06:31.010Z,83.28
2022-10-22T05:09:00.356Z,84.11
2022-10-22T05:11:30.041Z,83.66
2022-10-22T05:13:58.203Z,83.89
2022-10-22T05:16:26.032Z,83.65
2022-10-22T05:18:55.076Z,83.48
2022-10-22T05:21:22.645Z,83.19
2022-10-22T05:23:51.228Z,83.06
2022-10-22T05:26:21.172Z,82.83
2022-10-22T05:28:49.334Z,82.45
2022-10-22T05:31:18.300Z,82.94
2022-10-22T05:33:46.891Z,82.79
2022-10-22T05:36:17.802Z,82.69
2022-10-22T05:38:45.902Z,81.79
2022-10-22T05:41:14.943Z,81.94
2022-10-22T05:43:42.671Z,82.17
2022-10-22T05:46:11.777Z,81.96
2022-10-22T05:48:39.834Z,81.91
2022-10-22T05:51:09.710Z,81.69
2022-10-22T05:53:40.058Z,82.76
2022-10-22T05:56:12.198Z,82.54
2022-10-22T05:58:39.824Z,83.22
2022-10-22T06:01:08.764Z,83.83
2022-10-22T06:03:36.331Z,83.97
2022-10-22T06:06:15.547Z,84.50
2022-10-22T06:08:44.613Z,85.20
2022-10-22T06:11:12.199Z,85.49
2022-10-22T06:13:39.685Z,85.84
2022-10-22T06:16:07.346Z,86.44
2022-10-22T06:18:35.016Z,86.91
2022-10-22T06:21:06.979Z,86.54
2022-10-22T06:23:34.555Z,86.55
2022-10-22T06:26:04.487Z,86.26
2022-10-22T06:28:32.698Z,86.18
2022-10-22T06:31:00.978Z,85.30
2022-10-22T06:33:29.274Z,85.45
2022-10-22T06:35:56.894Z,85.92
2022-10-22T06:38:24.340Z,85.25
2022-10-22T06:40:54.317Z,84.61
2022-10-22T06:43:23.126Z,84.53
2022-10-22T06:45:50.612Z,84.44
2022-10-22T06:48:18.091Z,84.25
2022-10-22T06:50:45.573Z,84.54
2022-10-22T06:53:13.081Z,84.38
2022-10-22T06:55:40.615Z,83.94
2022-10-22T06:58:08.105Z,83.71
2022-10-22T07:00:36.899Z,83.48
2022-10-22T07:03:04.589Z,83.19
2022-10-22T07:05:34.688Z,82.40
2022-10-22T07:08:02.178Z,82.69
2022-10-22T07:10:30.696Z,82.70
2022-10-22T07:12:58.734Z,83.51
2022-10-22T07:15:26.378Z,82.95
2022-10-22T07:17:55.211Z,82.72
2022-10-22T07:20:22.734Z,82.13
2022-10-22T07:22:50.230Z,81.81
2022-10-22T07:25:18.023Z,81.40
2022-10-22T07:27:45.504Z,80.73
2022-10-22T07:30:13.583Z,81.45
2022-10-22T07:32:41.092Z,80.54
2022-10-22T07:35:10.512Z,79.96
2022-10-22T07:37:38.183Z,80.37
2022-10-22T07:40:06.477Z,80.36
2022-10-22T07:42:34.095Z,79.52
2022-10-22T07:45:01.626Z,78.89
2022-10-22T07:47:29.111Z,79.04
2022-10-22T07:49:56.606Z,78.65
2022-10-22T07:52:25.491Z,78.36
2022-10-22T07:54:53.114Z,78.09
2022-10-22T07:57:20.624Z,78.19
2022-10-22T07:59:48.103Z,78.37
2022-10-22T08:02:15.556Z,78.01
2022-10-22T08:04:43.145Z,77.12
2022-10-22T08:07:10.778Z,76.85
2022-10-22T08:09:39.575Z,76.02
2022-10-22T08:12:07.924Z,75.91
2022-10-22T08:14:35.402Z,75.57
2022-10-22T08:17:02.861Z,75.38
2022-10-22T08:19:32.351Z,74.54
2022-10-22T08:22:00.317Z,74.62
2022-10-22T08:24:28.213Z,75.26
2022-10-22T08:26:57.083Z,74.08
2022-10-22T08:29:24.571Z,74.22
2022-10-22T08:31:52.067Z,73.64
2022-10-22T08:34:20.532Z,74.09
2022-10-22T08:36:48.345Z,73.05
2022-10-22T08:39:15.971Z,72.64
2022-10-22T08:41:53.694Z,72.21
2022-10-22T08:44:37.810Z,72.04
2022-10-22T08:47:22.613Z,71.90
2022-10-22T08:49:50.543Z,72.00
2022-10-22T08:52:20.764Z,71.58
2022-10-22T08:54:53.720Z,71.62
2022-10-22T08:57:34.499Z,70.92
2022-10-22T09:00:06.618Z,71.31
2022-10-22T09:02:42.091Z,71.58
2022-10-22T09:05:26.519Z,71.87
2022-10-22T09:07:55.694Z,71.62
2022-10-22T09:10:28.967Z,71.33
2022-10-22T09:12:56.448Z,71.19
2022-10-22T09:15:25.353Z,70.98
2022-10-22T09:18:06.258Z,71.38
2022-10-22T09:20:45.737Z,71.33
2022-10-22T09:23:34.308Z,71.85
2022-10-22T09:26:13.051Z,71.27
2022-10-22T09:28:40.530Z,71.60
2022-10-22T09:31:12.198Z,71.23
2022-10-22T09:33:41.090Z,71.39
2022-10-22T09:36:09.269Z,71.13
2022-10-22T09:38:41.710Z,70.36
2022-10-22T09:41:10.265Z,71.12
2022-10-22T09:43:38.049Z,71.00
2022-10-22T09:46:07.623Z,70.67
2022-10-22T09:48:39.176Z,70.08
2022-10-22T09:51:13.170Z,69.90
2022-10-22T09:53:44.463Z,69.64
2022-10-22T09:56:21.933Z,70.00
2022-10-22T09:58:51.792Z,70.07
2022-10-22T10:01:27.714Z,69.25
2022-10-22T10:04:08.367Z,69.61
2022-10-22T10:06:40.197Z,69.79
2022-10-22T10:09:15.837Z,69.47
2022-10-22T10:11:47.166Z,70.31
2022-10-22T10:14:20.142Z,69.76
2022-10-22T10:16:59.495Z,69.49
2022-10-22T10:19:39.075Z,69.14
2022-10-22T10:22:15.944Z,69.24
2022-10-22T10:24:58.444Z,68.69
2022-10-22T10:27:32.037Z,68.74
2022-10-22T10:30:04.305Z,69.61
2022-10-22T10:32:48.894Z,69.22
2022-10-22T10:35:24.798Z,68.31
2022-10-22T10:38:05.104Z,69.02
2022-10-22T10:40:41.557Z,69.11
2022-10-22T10:43:14.457Z,68.10
2022-10-22T10:45:55.607Z,67.14
2022-10-22T10:48:33.249Z,67.80
2022-10-22T10:51:23.516Z,68.54
2022-10-22T10:54:02.813Z,68.01
2022-10-22T10:56:39.668Z,68.76
2022-10-22T10:59:17.448Z,68.29
2022-10-22T11:01:57.112Z,67.97
2022-10-22T11:04:46.698Z,67.82
2022-10-22T11:07:33.496Z,67.53
2022-10-22T11:10:09.736Z,66.90
2022-10-22T11:12:43.433Z,66.54
2022-10-22T11:15:23.672Z,66.80
2022-10-22T11:17:55.478Z,66.52
2022-10-22T11:20:27.228Z,66.30
2022-10-22T11:23:19.003Z,65.98
2022-10-22T11:25:50.131Z,66.39
2022-10-22T11:28:22.034Z,66.29
2022-10-22T11:30:55.875Z,66.02
2022-10-22T11:33:27.686Z,66.37
2022-10-22T11:35:58.191Z,65.59
2022-10-22T11:38:29.067Z,66.11
2022-10-22T11:41:01.230Z,66.13
2022-10-22T11:43:31.821Z,66.44
2022-10-22T11:46:08.963Z,66.57
2022-10-22T11:48:38.811Z,66.65
2022-10-22T11:51:32.990Z,66.54
2022-10-22T11:54:03.880Z,67.33
2022-10-22T11:56:39.602Z,67.06
2022-10-22T11:59:35.361Z,66.91
2022-10-22T12:02:02.849Z,66.34
2022-10-22T12:04:42.887Z,65.92
2022-10-22T12:07:34.408Z,65.67
2022-10-22T12:10:06.773Z,65.14
2022-10-22T12:12:37.214Z,64.87
2022-10-22T12:15:24.471Z,64.40
2022-10-22T12:17:52.251Z,64.31
2022-10-22T12:20:19.800Z,64.72
2022-10-22T12:22:49.059Z,64.50
2022-10-22T12:25:22.805Z,64.73
2022-10-22T12:27:53.364Z,64.07
2022-10-22T12:30:23.556Z,64.06
2022-10-22T12:32:54.141Z,64.00
2022-10-22T12:35:24.640Z,64.05
2022-10-22T12:37:56.770Z,64.19
2022-10-22T12:40:26.611Z,63.64
2022-10-22T12:42:57.487Z,64.57
2022-10-22T12:45:29.049Z,64.47
2022-10-22T12:47:58.260Z,64.29
2022-10-22T12:50:33.754Z,63.71
2022-10-22T12:53:02.640Z,63.31
2022-10-22T12:55:32.663Z,63.70
2022-10-22T12:58:00.602Z,64.09
2022-10-22T13:00:33.640Z,64.15
2022-10-22T13:03:06.100Z,64.12
2022-10-22T13:05:38.989Z,63.70
2022-10-22T13:08:11.224Z,62.97
2022-10-22T13:10:40.580Z,62.33
2022-10-22T13:13:08.546Z,62.84
2022-10-22T13:15:39.891Z,63.09
2022-10-22T13:18:17.062Z,62.63
2022-10-22T13:20:52.606Z,62.86
2022-10-22T13:23:23.457Z,63.49
2022-10-22T13:25:59.044Z,62.86
2022-10-22T13:28:27.480Z,63.30
2022-10-22T13:30:57.064Z,62.85
2022-10-22T13:33:27.551Z,61.85
2022-10-22T13:35:56.358Z,62.73
2022-10-22T13:38:26.882Z,62.12
2022-10-22T13:40:55.069Z,61.74
2022-10-22T13:43:23.055Z,61.60
2022-10-22T13:45:54.703Z,61.95
2022-10-22T13:48:24.776Z,61.81
2022-10-22T13:50:53.569Z,61.81
2022-10-22T13:53:24.626Z,61.35
2022-10-22T13:55:53.519Z,61.60
2022-10-22T13:58:24.449Z,60.64
2022-10-22T14:00:55.507Z,60.54
2022-10-22T14:03:26.666Z,61.22
2022-10-22T14:05:54.235Z,61.51
2022-10-22T14:08:24.183Z,61.74
2022-10-22T14:10:53.342Z,61.96
2022-10-22T14:13:21.978Z,62.09
2022-10-22T14:15:52.341Z,61.98
2022-10-22T14:18:26.753Z,61.30
2022-10-22T14:20:55.971Z,61.17
2022-10-22T14:23:26.450Z,60.47
2022-10-22T14:25:55.300Z,61.01
2022-10-22T14:28:22.907Z,61.14
2022-10-22T14:30:51.055Z,60.42
2022-10-22T14:33:23.846Z,60.24
2022-10-22T14:35:53.540Z,59.92
2022-10-22T14:38:21.074Z,60.14
2022-10-22T14:40:49.218Z,59.84
2022-10-22T14:43:22.122Z,59.44
2022-10-22T14:45:49.728Z,59.01
2022-10-22T14:48:17.234Z,59.43
2022-10-22T14:50:45.529Z,59.00
2022-10-22T14:53:14.626Z,58.63
2022-10-22T14:55:44.055Z,58.70
2022-10-22T14:58:12.245Z,58.88
2022-10-22T15:00:42.198Z,58.99
2022-10-22T15:03:11.103Z,58.97
2022-10-22T15:05:43.327Z,59.73
2022-10-22T15:08:11.153Z,59.05
2022-10-22T15:10:38.664Z,59.17
2022-10-22T15:13:06.242Z,59.35
2022-10-22T15:15:36.739Z,59.28
2022-10-22T15:18:08.210Z,60.60
2022-10-22T15:20:35.862Z,60.29
2022-10-22T15:23:03.456Z,60.31
2022-10-22T15:25:31.098Z,60.03
2022-10-22T15:28:02.046Z,59.89
2022-10-22T15:30:36.512Z,59.55
2022-10-22T15:33:03.997Z,59.87
2022-10-22T15:35:32.875Z,59.61
2022-10-22T15:38:00.333Z,60.08
2022-10-22T15:40:27.929Z,60.20
2022-10-22T15:42:55.372Z,60.28
2022-10-22T15:45:24.894Z,60.47
2022-10-22T15:47:52.412Z,60.80
2022-10-22T15:50:19.906Z,61.13
2022-10-22T15:52:48.772Z,61.38
2022-10-22T15:55:16.451Z,61.13
2022-10-22T15:57:44.407Z,61.35
2022-10-22T16:00:13.453Z,61.24
2022-10-22T16:02:41.082Z,61.57
2022-10-22T16:05:09.356Z,62.00
2022-10-22T16:07:36.843Z,61.86
2022-10-22T16:10:07.623Z,61.71
2022-10-22T16:12:35.821Z,61.33
2022-10-22T16:15:03.342Z,61.73
2022-10-22T16:17:30.805Z,61.34
2022-10-22T16:19:58.340Z,61.07
2022-10-22T16:22:25.867Z,62.41
2022-10-22T16:24:53.323Z,62.05
2022-10-22T16:27:22.136Z,61.73
2022-10-22T16:29:49.580Z,62.16
2022-10-22T16:32:17.804Z,62.25
2022-10-22T16:34:45.273Z,61.97
2022-10-22T16:37:12.744Z,62.00
2022-10-22T16:39:40.199Z,62.61
2022-10-22T16:42:07.668Z,63.50
2022-10-22T16:44:36.472Z,64.32
2022-10-22T16:47:04.090Z,65.05
2022-10-22T16:49:31.565Z,65.92
2022-10-22T16:51:59.023Z,65.83
2022-10-22T16:54:26.500Z,66.59
2022-10-22T16:56:53.953Z,66.50
2022-10-22T16:59:21.415Z,66.76
2022-10-22T17:01:50.229Z,67.16
2022-10-22T17:04:17.944Z,67.50
2022-10-22T17:06:45.421Z,67.26
2022-10-22T17:09:12.935Z,67.67
2022-10-22T17:11:42.510Z,67.14
2022-10-22T17:14:11.594Z,66.70
2022-10-22T17:16:39.100Z,66.89
2022-10-22T17:19:08.148Z,67.11
2022-10-22T17:21:35.613Z,68.22
2022-10-22T17:24:03.158Z,67.50
2022-10-22T17:26:33.137Z,66.68
2022-10-22T17:29:00.940Z,67.19
2022-10-22T17:31:32.474Z,66.77
2022-10-22T17:34:00.732Z,66.49
2022-10-22T17:36:34.824Z,66.29
2022-10-22T17:39:06.824Z,65.73
2022-10-22T17:41:36.637Z,65.89
2022-10-22T17:44:06.440Z,66.99
2022-10-22T17:46:34.011Z,67.15
2022-10-22T17:49:04.304Z,67.04
2022-10-22T17:51:33.191Z,66.72
2022-10-22T17:54:01.709Z,66.55
2022-10-22T17:56:31.167Z,66.66
2022-10-22T17:58:59.629Z,66.14
2022-10-22T18:01:28.968Z,65.54
2022-10-22T18:04:01.141Z,65.29
2022-10-22T18:06:29.130Z,65.34
2022-10-22T18:08:58.422Z,65.24
2022-10-22T18:11:27.938Z,66.06
2022-10-22T18:13:57.653Z,66.75
2022-10-22T18:16:25.846Z,66.54
2022-10-22T18:18:57.004Z,67.22
2022-10-22T18:21:26.388Z,66.44
2022-10-22T18:23:54.469Z,66.44
2022-10-22T18:26:26.001Z,66.90
2022-10-22T18:28:54.593Z,66.93
2022-10-22T18:31:24.149Z,67.29
2022-10-22T18:36:22.136Z,67.48
2022-10-22T18:38:50.385Z,67.15
2022-10-22T18:41:18.408Z,66.44
2022-10-22T18:43:50.963Z,66.53
2022-10-22T18:46:18.628Z,66.47
2022-10-22T18:48:46.976Z,66.42
2022-10-22T18:51:16.498Z,67.37
2022-10-22T18:53:53.743Z,66.44
2022-10-22T18:56:31.688Z,66.70
2022-10-22T18:59:00.485Z,66.25
2022-10-22T19:01:29.859Z,66.12
2022-10-22T19:03:57.591Z,65.84
2022-10-22T19:06:29.965Z,65.60
2022-10-22T19:08:59.337Z,66.13
2022-10-22T19:11:27.243Z,65.98
2022-10-22T19:13:54.720Z,65.92
2022-10-22T19:16:24.587Z,66.24
2022-10-22T19:18:53.058Z,66.13
2022-10-22T19:21:21.704Z,66.33
2022-10-22T19:23:49.399Z,66.92
2022-10-22T19:26:18.640Z,66.34
2022-10-22T19:28:46.374Z,67.02
2022-10-22T19:31:18.670Z,67.31
2022-10-22T19:33:47.793Z,67.46
2022-10-22T19:36:17.802Z,67.13
2022-10-22T19:38:47.590Z,67.68
2022-10-22T19:41:17.160Z,66.65
2022-10-22T19:43:45.921Z,66.46
2022-10-22T19:46:14.135Z,65.30
2022-10-22T19:48:41.640Z,66.40
2022-10-22T19:51:15.313Z,66.09
2022-10-22T19:53:42.973Z,66.12
2022-10-22T19:56:12.503Z,65.85
2022-10-22T19:58:40.027Z,65.68
2022-10-22T20:01:09.150Z,65.96
2022-10-22T20:03:37.830Z,66.44
2022-10-22T20:06:07.158Z,67.05
2022-10-22T20:08:37.830Z,66.90
2022-10-22T20:11:07.133Z,67.39
2022-10-22T20:13:34.777Z,67.46
2022-10-22T20:16:05.052Z,67.31
2022-10-22T20:18:33.925Z,67.61
2022-10-22T20:21:05.282Z,67.52
2022-10-22T20:23:32.780Z,68.05
2022-10-22T20:26:01.926Z,69.07
2022-10-22T20:28:29.387Z,70.14
2022-10-22T20:30:56.856Z,70.04
2022-10-22T20:33:24.767Z,69.83
2022-10-22T20:35:59.844Z,70.00
2022-10-22T20:38:27.373Z,70.96
2022-10-22T20:41:04.770Z,71.34
2022-10-22T20:43:32.892Z,71.65
2022-10-22T20:46:00.854Z,71.61
2022-10-22T20:48:31.194Z,71.59
2022-10-22T20:50:59.736Z,71.74
2022-10-22T20:53:28.381Z,71.10
2022-10-22T20:55:59.750Z,72.10
2022-10-22T20:58:30.538Z,71.77
2022-10-22T21:00:58.476Z,71.58
2022-10-22T21:03:26.084Z,71.40
2022-10-22T21:05:53.610Z,71.54
2022-10-22T21:08:21.075Z,71.05
2022-10-22T21:10:49.012Z,71.14
2022-10-22T21:13:19.384Z,71.47
2022-10-22T21:15:48.872Z,71.31
2022-10-22T21:18:16.721Z,71.83
2022-10-22T21:20:44.214Z,71.27
2022-10-22T21:23:11.700Z,71.49
2022-10-22T21:25:41.966Z,71.58
2022-10-22T21:28:11.821Z,71.59
2022-10-22T21:30:45.613Z,71.39
2022-10-22T21:33:14.639Z,71.77
2022-10-22T21:35:50.040Z,72.34
2022-10-22T21:38:17.526Z,72.13
2022-10-22T21:40:45.040Z,72.51
2022-10-22T21:43:12.742Z,72.69
2022-10-22T21:45:40.271Z,72.86
2022-10-22T21:48:07.875Z,73.19
2022-10-22T21:50:39.537Z,73.33
2022-10-22T21:53:07.080Z,73.92
2022-10-22T21:55:39.037Z,74.08
2022-10-22T21:58:06.766Z,74.00
2022-10-22T22:00:34.879Z,73.69
2022-10-22T22:03:02.632Z,74.13
2022-10-22T22:05:30.311Z,74.37
2022-10-22T22:07:59.113Z,73.99
2022-10-22T22:10:26.934Z,74.51
2022-10-22T22:12:54.398Z,74.02
2022-10-22T22:15:21.998Z,73.99
2022-10-22T22:17:49.458Z,74.26
2022-10-22T22:20:17.125Z,74.05
2022-10-22T22:22:44.715Z,73.86
2022-10-22T22:25:13.651Z,73.88
2022-10-22T22:27:41.630Z,73.80
2022-10-22T22:30:10.856Z,74.33
2022-10-22T22:32:38.319Z,74.10
2022-10-22T22:35:06.563Z,73.85
2022-10-22T22:37:34.002Z,74.14
2022-10-22T22:40:01.809Z,74.11
2022-10-22T22:42:30.646Z,74.33
2022-10-22T22:44:58.909Z,73.53
2022-10-22T22:47:26.415Z,73.56
2022-10-22T22:49:53.928Z,73.90
2022-10-22T22:54:53.764Z,73.28
2022-10-22T22:57:21.296Z,73.10
2022-10-22T22:59:53.997Z,72.78
2022-10-22T23:02:21.473Z,72.49
2022-10-22T23:04:48.929Z,71.34
2022-10-22T23:07:16.417Z,71.98
2022-10-22T23:09:44.198Z,71.85
2022-10-22T23:12:11.637Z,71.66
2022-10-22T23:14:39.186Z,71.62
2022-10-22T23:17:08.074Z,71.50
2022-10-22T23:19:35.597Z,71.59
2022-10-22T23:22:03.131Z,71.66
2022-10-22T23:24:30.855Z,70.95
2022-10-22T23:27:01.768Z,71.34
2022-10-22T23:29:31.436Z,70.88
2022-10-22T23:32:01.392Z,70.94
2022-10-22T23:34:31.269Z,71.27
2022-10-22T23:36:59.484Z,72.22
2022-10-22T23:39:29.321Z,71.45
2022-10-22T23:41:57.265Z,71.41
2022-10-22T23:44:25.725Z,71.76
2022-10-22T23:46:53.333Z,71.79
2022-10-22T23:49:20.816Z,71.88
2022-10-22T23:51:49.799Z,72.01
2022-10-22T23:54:18.714Z,71.64
2022-10-22T23:56:46.653Z,71.56
